sensor_id;sensor_type;location;lat;lon;timestamp;temperature;humidity
6106;DHT22;3083;51.508;7.966;2022-08-01T00:00:31;19.30;99.90
6106;DHT22;3083;51.508;7.966;2022-08-01T00:02:58;19.30;99.90
6106;DHT22;3083;51.508;7.966;2022-08-01T00:05:25;19.30;99.90
6106;DHT22;3083;51.508;7.966;2022-08-01T00:07:52;19.40;99.90
6106;DHT22;3083;51.508;7.966;2022-08-01T00:10:19;19.30;99.90
6106;DHT22;3083;51.508;7.966;2022-08-01T00:12:47;19.30;99.90
6106;DHT22;3083;51.508;7.966;2022-08-01T00:15:16;19.30;99.90
6106;DHT22;3083;51.508;7.966;2022-08-01T00:17:43;19.30;99.90
6106;DHT22;3083;51.508;7.966;2022-08-01T00:20:12;19.30;99.90
6106;DHT22;3083;51.508;7.966;2022-08-01T00:22:39;19.30;99.90
6106;DHT22;3083;51.508;7.966;2022-08-01T00:25:07;19.30;99.90
6106;DHT22;3083;51.508;7.966;2022-08-01T00:27:34;19.30;99.90
6106;DHT22;3083;51.508;7.966;2022-08-01T00:30:03;19.30;99.90
6106;DHT22;3083;51.508;7.966;2022-08-01T00:32:31;19.30;99.90
6106;DHT22;3083;51.508;7.966;2022-08-01T00:34:58;19.30;99.90
6106;DHT22;3083;51.508;7.966;2022-08-01T00:37:25;19.30;99.90
6106;DHT22;3083;51.508;7.966;2022-08-01T00:39:52;19.30;99.90
6106;DHT22;3083;51.508;7.966;2022-08-01T00:42:19;19.30;99.90
6106;DHT22;3083;51.508;7.966;2022-08-01T00:44:46;19.30;99.90
6106;DHT22;3083;51.508;7.966;2022-08-01T00:47:15;19.30;99.90
6106;DHT22;3083;51.508;7.966;2022-08-01T00:49:42;19.30;99.90
6106;DHT22;3083;51.508;7.966;2022-08-01T00:52:09;19.40;99.90
6106;DHT22;3083;51.508;7.966;2022-08-01T00:54:36;19.30;99.90
6106;DHT22;3083;51.508;7.966;2022-08-01T00:57:04;19.30;99.90
6106;DHT22;3083;51.508;7.966;2022-08-01T00:59:31;19.30;99.90
6106;DHT22;3083;51.508;7.966;2022-08-01T01:01:58;19.30;99.90
6106;DHT22;3083;51.508;7.966;2022-08-01T01:04:27;19.30;99.90
6106;DHT22;3083;51.508;7.966;2022-08-01T01:07:02;19.30;99.90
6106;DHT22;3083;51.508;7.966;2022-08-01T01:09:36;19.30;99.90
6106;DHT22;3083;51.508;7.966;2022-08-01T01:12:15;19.30;99.90
6106;DHT22;3083;51.508;7.966;2022-08-01T01:14:51;19.30;99.90
6106;DHT22;3083;51.508;7.966;2022-08-01T01:17:23;19.30;99.90
6106;DHT22;3083;51.508;7.966;2022-08-01T01:19:55;19.30;99.90
6106;DHT22;3083;51.508;7.966;2022-08-01T01:22:34;19.30;99.90
6106;DHT22;3083;51.508;7.966;2022-08-01T01:25:24;19.30;99.90
6106;DHT22;3083;51.508;7.966;2022-08-01T01:28:02;19.30;99.90
6106;DHT22;3083;51.508;7.966;2022-08-01T01:30:32;19.20;99.90
6106;DHT22;3083;51.508;7.966;2022-08-01T01:33:03;19.20;99.90
6106;DHT22;3083;51.508;7.966;2022-08-01T01:35:35;19.20;99.90
6106;DHT22;3083;51.508;7.966;2022-08-01T01:38:10;19.20;99.90
6106;DHT22;3083;51.508;7.966;2022-08-01T01:40:38;19.20;99.90
6106;DHT22;3083;51.508;7.966;2022-08-01T01:43:10;19.20;99.90
6106;DHT22;3083;51.508;7.966;2022-08-01T01:45:40;19.20;99.90
6106;DHT22;3083;51.508;7.966;2022-08-01T01:48:09;19.20;99.90
6106;DHT22;3083;51.508;7.966;2022-08-01T01:50:37;19.20;99.90
6106;DHT22;3083;51.508;7.966;2022-08-01T01:53:05;19.20;99.90
6106;DHT22;3083;51.508;7.966;2022-08-01T01:55:34;19.20;99.90
6106;DHT22;3083;51.508;7.966;2022-08-01T01:58:02;19.20;99.90
6106;DHT22;3083;51.508;7.966;2022-08-01T02:00:31;19.20;99.90
6106;DHT22;3083;51.508;7.966;2022-08-01T02:03:01;19.20;99.90
6106;DHT22;3083;51.508;7.966;2022-08-01T02:05:29;19.10;99.90
6106;DHT22;3083;51.508;7.966;2022-08-01T02:07:57;19.10;99.90
6106;DHT22;3083;51.508;7.966;2022-08-01T02:10:25;19.10;99.90
6106;DHT22;3083;51.508;7.966;2022-08-01T02:12:53;19.10;99.90
6106;DHT22;3083;51.508;7.966;2022-08-01T02:15:21;19.10;99.90
6106;DHT22;3083;51.508;7.966;2022-08-01T02:17:50;19.10;99.90
6106;DHT22;3083;51.508;7.966;2022-08-01T02:20:19;19.10;99.90
6106;DHT22;3083;51.508;7.966;2022-08-01T02:22:49;19.10;99.90
6106;DHT22;3083;51.508;7.966;2022-08-01T02:25:21;19.10;99.90
6106;DHT22;3083;51.508;7.966;2022-08-01T02:27:54;19.10;99.90
6106;DHT22;3083;51.508;7.966;2022-08-01T02:30:24;19.00;99.90
6106;DHT22;3083;51.508;7.966;2022-08-01T02:32:59;19.10;99.90
6106;DHT22;3083;51.508;7.966;2022-08-01T02:35:32;19.10;99.90
6106;DHT22;3083;51.508;7.966;2022-08-01T02:38:01;19.10;99.90
6106;DHT22;3083;51.508;7.966;2022-08-01T02:40:32;19.00;99.90
6106;DHT22;3083;51.508;7.966;2022-08-01T02:43:01;19.00;99.90
6106;DHT22;3083;51.508;7.966;2022-08-01T02:45:29;19.00;99.90
6106;DHT22;3083;51.508;7.966;2022-08-01T02:48:00;19.00;99.90
6106;DHT22;3083;51.508;7.966;2022-08-01T02:50:31;19.00;99.90
6106;DHT22;3083;51.508;7.966;2022-08-01T02:53:00;19.00;99.90
6106;DHT22;3083;51.508;7.966;2022-08-01T02:55:30;19.00;99.90
6106;DHT22;3083;51.508;7.966;2022-08-01T02:58:00;18.90;99.90
6106;DHT22;3083;51.508;7.966;2022-08-01T03:00:28;19.00;99.90
6106;DHT22;3083;51.508;7.966;2022-08-01T03:02:57;18.90;99.90
6106;DHT22;3083;51.508;7.966;2022-08-01T03:05:25;18.90;99.90
6106;DHT22;3083;51.508;7.966;2022-08-01T03:07:55;18.90;99.90
6106;DHT22;3083;51.508;7.966;2022-08-01T03:10:23;18.90;99.90
6106;DHT22;3083;51.508;7.966;2022-08-01T03:12:51;18.90;99.90
6106;DHT22;3083;51.508;7.966;2022-08-01T03:15:19;18.80;99.90
6106;DHT22;3083;51.508;7.966;2022-08-01T03:17:48;18.80;99.90
6106;DHT22;3083;51.508;7.966;2022-08-01T03:20:18;18.80;99.90
6106;DHT22;3083;51.508;7.966;2022-08-01T03:22:50;18.80;99.90
6106;DHT22;3083;51.508;7.966;2022-08-01T03:25:20;18.80;99.90
6106;DHT22;3083;51.508;7.966;2022-08-01T03:27:54;18.80;99.90
6106;DHT22;3083;51.508;7.966;2022-08-01T03:30:22;18.80;99.90
6106;DHT22;3083;51.508;7.966;2022-08-01T03:32:50;18.80;99.90
6106;DHT22;3083;51.508;7.966;2022-08-01T03:35:17;18.80;99.90
6106;DHT22;3083;51.508;7.966;2022-08-01T03:37:46;18.80;99.90
6106;DHT22;3083;51.508;7.966;2022-08-01T03:40:16;18.80;99.90
6106;DHT22;3083;51.508;7.966;2022-08-01T03:42:47;18.80;99.90
6106;DHT22;3083;51.508;7.966;2022-08-01T03:45:20;18.70;99.90
6106;DHT22;3083;51.508;7.966;2022-08-01T03:47:49;18.70;99.90
6106;DHT22;3083;51.508;7.966;2022-08-01T03:50:21;18.70;99.90
6106;DHT22;3083;51.508;7.966;2022-08-01T03:52:50;18.70;99.90
6106;DHT22;3083;51.508;7.966;2022-08-01T03:55:18;18.70;99.90
6106;DHT22;3083;51.508;7.966;2022-08-01T03:57:48;18.70;99.90
6106;DHT22;3083;51.508;7.966;2022-08-01T04:00:16;18.70;99.90
6106;DHT22;3083;51.508;7.966;2022-08-01T04:02:45;18.70;99.90
6106;DHT22;3083;51.508;7.966;2022-08-01T04:05:12;18.60;99.90
6106;DHT22;3083;51.508;7.966;2022-08-01T04:07:39;18.60;99.90
6106;DHT22;3083;51.508;7.966;2022-08-01T04:10:08;18.60;99.90
6106;DHT22;3083;51.508;7.966;2022-08-01T04:12:35;18.70;99.90
6106;DHT22;3083;51.508;7.966;2022-08-01T04:15:05;18.70;99.90
6106;DHT22;3083;51.508;7.966;2022-08-01T04:17:32;18.70;99.90
6106;DHT22;3083;51.508;7.966;2022-08-01T04:19:59;18.80;99.90
6106;DHT22;3083;51.508;7.966;2022-08-01T04:22:26;18.80;99.90
6106;DHT22;3083;51.508;7.966;2022-08-01T04:24:55;18.80;99.90
6106;DHT22;3083;51.508;7.966;2022-08-01T04:27:27;18.80;99.90
6106;DHT22;3083;51.508;7.966;2022-08-01T04:29:56;18.80;99.90
6106;DHT22;3083;51.508;7.966;2022-08-01T04:32:28;18.80;99.90
6106;DHT22;3083;51.508;7.966;2022-08-01T04:34:58;18.80;99.90
6106;DHT22;3083;51.508;7.966;2022-08-01T04:37:27;18.80;99.90
6106;DHT22;3083;51.508;7.966;2022-08-01T04:39:57;18.80;99.90
6106;DHT22;3083;51.508;7.966;2022-08-01T04:42:24;18.80;99.90
6106;DHT22;3083;51.508;7.966;2022-08-01T04:44:53;18.80;99.90
6106;DHT22;3083;51.508;7.966;2022-08-01T04:47:20;18.80;99.90
6106;DHT22;3083;51.508;7.966;2022-08-01T04:49:50;18.80;99.90
6106;DHT22;3083;51.508;7.966;2022-08-01T04:52:17;18.80;99.90
6106;DHT22;3083;51.508;7.966;2022-08-01T04:54:44;18.80;99.90
6106;DHT22;3083;51.508;7.966;2022-08-01T04:57:13;18.70;99.90
6106;DHT22;3083;51.508;7.966;2022-08-01T04:59:42;18.70;99.90
6106;DHT22;3083;51.508;7.966;2022-08-01T05:02:11;18.70;99.90
6106;DHT22;3083;51.508;7.966;2022-08-01T05:04:40;18.70;99.90
6106;DHT22;3083;51.508;7.966;2022-08-01T05:07:09;18.70;99.90
6106;DHT22;3083;51.508;7.966;2022-08-01T05:09:37;18.70;99.90
6106;DHT22;3083;51.508;7.966;2022-08-01T05:12:07;18.80;99.90
6106;DHT22;3083;51.508;7.966;2022-08-01T05:14:35;18.80;99.90
6106;DHT22;3083;51.508;7.966;2022-08-01T05:17:04;18.80;99.90
6106;DHT22;3083;51.508;7.966;2022-08-01T05:19:32;18.80;99.90
6106;DHT22;3083;51.508;7.966;2022-08-01T05:21:59;18.80;99.90
6106;DHT22;3083;51.508;7.966;2022-08-01T05:24:28;18.80;99.90
6106;DHT22;3083;51.508;7.966;2022-08-01T05:26:55;18.90;99.90
6106;DHT22;3083;51.508;7.966;2022-08-01T05:29:23;18.90;99.90
6106;DHT22;3083;51.508;7.966;2022-08-01T05:31:50;18.90;99.90
6106;DHT22;3083;51.508;7.966;2022-08-01T05:34:17;19.00;99.90
6106;DHT22;3083;51.508;7.966;2022-08-01T05:36:44;19.00;99.90
6106;DHT22;3083;51.508;7.966;2022-08-01T05:39:12;19.10;99.90
6106;DHT22;3083;51.508;7.966;2022-08-01T05:41:41;19.10;99.90
6106;DHT22;3083;51.508;7.966;2022-08-01T05:44:08;19.20;99.90
6106;DHT22;3083;51.508;7.966;2022-08-01T05:46:36;19.20;99.90
6106;DHT22;3083;51.508;7.966;2022-08-01T05:49:04;19.20;99.90
6106;DHT22;3083;51.508;7.966;2022-08-01T05:51:31;19.20;99.90
6106;DHT22;3083;51.508;7.966;2022-08-01T05:53:58;19.30;99.90
6106;DHT22;3083;51.508;7.966;2022-08-01T05:56:26;19.30;99.90
6106;DHT22;3083;51.508;7.966;2022-08-01T05:58:54;19.30;99.90
6106;DHT22;3083;51.508;7.966;2022-08-01T06:01:21;19.40;99.90
6106;DHT22;3083;51.508;7.966;2022-08-01T06:03:48;19.40;99.90
6106;DHT22;3083;51.508;7.966;2022-08-01T06:06:15;19.40;99.90
6106;DHT22;3083;51.508;7.966;2022-08-01T06:08:42;19.50;99.90
6106;DHT22;3083;51.508;7.966;2022-08-01T06:11:09;19.60;99.90
6106;DHT22;3083;51.508;7.966;2022-08-01T06:13:36;19.70;99.90
6106;DHT22;3083;51.508;7.966;2022-08-01T06:16:05;19.90;99.90
6106;DHT22;3083;51.508;7.966;2022-08-01T06:18:32;20.00;99.90
6106;DHT22;3083;51.508;7.966;2022-08-01T06:20:58;20.00;99.90
6106;DHT22;3083;51.508;7.966;2022-08-01T06:23:25;20.00;99.90
6106;DHT22;3083;51.508;7.966;2022-08-01T06:25:52;20.00;99.90
6106;DHT22;3083;51.508;7.966;2022-08-01T06:28:20;20.00;99.90
6106;DHT22;3083;51.508;7.966;2022-08-01T06:30:47;20.00;99.90
6106;DHT22;3083;51.508;7.966;2022-08-01T06:33:15;19.90;99.90
6106;DHT22;3083;51.508;7.966;2022-08-01T06:35:42;19.90;99.90
6106;DHT22;3083;51.508;7.966;2022-08-01T06:38:09;19.90;99.90
6106;DHT22;3083;51.508;7.966;2022-08-01T06:40:36;19.90;99.90
6106;DHT22;3083;51.508;7.966;2022-08-01T06:43:04;20.00;99.90
6106;DHT22;3083;51.508;7.966;2022-08-01T06:45:31;19.90;99.90
6106;DHT22;3083;51.508;7.966;2022-08-01T06:47:57;20.00;99.90
6106;DHT22;3083;51.508;7.966;2022-08-01T06:50:26;20.00;99.90
6106;DHT22;3083;51.508;7.966;2022-08-01T06:52:53;20.00;99.90
6106;DHT22;3083;51.508;7.966;2022-08-01T06:55:20;20.00;99.90
6106;DHT22;3083;51.508;7.966;2022-08-01T06:57:49;20.00;99.90
6106;DHT22;3083;51.508;7.966;2022-08-01T07:00:17;20.10;99.90
6106;DHT22;3083;51.508;7.966;2022-08-01T07:02:48;20.10;99.90
6106;DHT22;3083;51.508;7.966;2022-08-01T07:05:15;20.20;99.90
6106;DHT22;3083;51.508;7.966;2022-08-01T07:07:43;20.30;99.90
6106;DHT22;3083;51.508;7.966;2022-08-01T07:10:10;20.40;99.90
6106;DHT22;3083;51.508;7.966;2022-08-01T07:12:38;20.60;99.90
6106;DHT22;3083;51.508;7.966;2022-08-01T07:15:07;20.60;99.90
6106;DHT22;3083;51.508;7.966;2022-08-01T07:17:37;20.60;99.90
6106;DHT22;3083;51.508;7.966;2022-08-01T07:20:07;20.70;99.90
6106;DHT22;3083;51.508;7.966;2022-08-01T07:22:34;20.80;99.90
6106;DHT22;3083;51.508;7.966;2022-08-01T07:25:03;20.80;99.90
6106;DHT22;3083;51.508;7.966;2022-08-01T07:27:30;20.90;99.90
6106;DHT22;3083;51.508;7.966;2022-08-01T07:29:57;21.00;99.90
6106;DHT22;3083;51.508;7.966;2022-08-01T07:32:24;20.90;99.90
6106;DHT22;3083;51.508;7.966;2022-08-01T07:34:51;20.90;99.90
6106;DHT22;3083;51.508;7.966;2022-08-01T07:37:18;21.00;99.90
6106;DHT22;3083;51.508;7.966;2022-08-01T07:39:45;21.10;99.90
6106;DHT22;3083;51.508;7.966;2022-08-01T07:42:13;21.20;99.90
6106;DHT22;3083;51.508;7.966;2022-08-01T07:44:40;21.30;99.90
6106;DHT22;3083;51.508;7.966;2022-08-01T07:47:07;21.40;99.90
6106;DHT22;3083;51.508;7.966;2022-08-01T07:49:35;21.70;99.90
6106;DHT22;3083;51.508;7.966;2022-08-01T07:52:02;21.90;99.90
6106;DHT22;3083;51.508;7.966;2022-08-01T07:54:29;22.30;99.90
6106;DHT22;3083;51.508;7.966;2022-08-01T07:56:56;22.60;99.90
6106;DHT22;3083;51.508;7.966;2022-08-01T07:59:25;22.90;99.90
6106;DHT22;3083;51.508;7.966;2022-08-01T08:01:52;22.80;99.90
6106;DHT22;3083;51.508;7.966;2022-08-01T08:04:18;22.70;99.90
6106;DHT22;3083;51.508;7.966;2022-08-01T08:06:45;22.80;99.90
6106;DHT22;3083;51.508;7.966;2022-08-01T08:09:14;22.80;99.90
6106;DHT22;3083;51.508;7.966;2022-08-01T08:11:42;23.00;99.90
6106;DHT22;3083;51.508;7.966;2022-08-01T08:14:10;23.30;99.90
6106;DHT22;3083;51.508;7.966;2022-08-01T08:16:39;23.60;99.90
6106;DHT22;3083;51.508;7.966;2022-08-01T08:19:06;24.00;99.90
6106;DHT22;3083;51.508;7.966;2022-08-01T08:21:33;24.40;99.90
6106;DHT22;3083;51.508;7.966;2022-08-01T08:24:00;24.70;99.90
6106;DHT22;3083;51.508;7.966;2022-08-01T08:26:44;25.00;99.90
6106;DHT22;3083;51.508;7.966;2022-08-01T08:29:12;25.20;99.90
6106;DHT22;3083;51.508;7.966;2022-08-01T08:31:40;25.30;99.90
6106;DHT22;3083;51.508;7.966;2022-08-01T08:34:07;25.30;99.90
6106;DHT22;3083;51.508;7.966;2022-08-01T08:36:34;25.20;99.90
6106;DHT22;3083;51.508;7.966;2022-08-01T08:39:01;25.00;99.90
6106;DHT22;3083;51.508;7.966;2022-08-01T08:41:29;25.00;99.90
6106;DHT22;3083;51.508;7.966;2022-08-01T08:43:56;24.90;99.90
6106;DHT22;3083;51.508;7.966;2022-08-01T08:46:25;24.50;99.90
6106;DHT22;3083;51.508;7.966;2022-08-01T08:48:55;24.10;99.90
6106;DHT22;3083;51.508;7.966;2022-08-01T08:51:26;23.80;99.90
6106;DHT22;3083;51.508;7.966;2022-08-01T08:53:55;23.60;99.90
6106;DHT22;3083;51.508;7.966;2022-08-01T08:56:24;23.40;99.90
6106;DHT22;3083;51.508;7.966;2022-08-01T08:58:52;23.20;99.90
6106;DHT22;3083;51.508;7.966;2022-08-01T09:01:19;23.20;99.90
6106;DHT22;3083;51.508;7.966;2022-08-01T09:03:46;23.30;99.90
6106;DHT22;3083;51.508;7.966;2022-08-01T09:06:15;23.30;99.90
6106;DHT22;3083;51.508;7.966;2022-08-01T09:08:42;23.50;99.90
6106;DHT22;3083;51.508;7.966;2022-08-01T09:11:09;23.80;99.90
6106;DHT22;3083;51.508;7.966;2022-08-01T09:13:36;24.20;99.90
6106;DHT22;3083;51.508;7.966;2022-08-01T09:16:05;24.50;99.90
6106;DHT22;3083;51.508;7.966;2022-08-01T09:18:34;24.80;99.90
6106;DHT22;3083;51.508;7.966;2022-08-01T09:21:10;25.00;99.90
6106;DHT22;3083;51.508;7.966;2022-08-01T09:23:40;25.20;99.90
6106;DHT22;3083;51.508;7.966;2022-08-01T09:26:08;25.20;99.90
6106;DHT22;3083;51.508;7.966;2022-08-01T09:28:36;25.20;99.90
6106;DHT22;3083;51.508;7.966;2022-08-01T09:31:07;25.30;99.90
6106;DHT22;3083;51.508;7.966;2022-08-01T09:33:54;25.50;99.90
6106;DHT22;3083;51.508;7.966;2022-08-01T09:36:22;25.30;99.90
6106;DHT22;3083;51.508;7.966;2022-08-01T09:38:52;25.00;99.90
6106;DHT22;3083;51.508;7.966;2022-08-01T09:41:30;25.20;99.90
6106;DHT22;3083;51.508;7.966;2022-08-01T09:43:59;25.20;99.90
6106;DHT22;3083;51.508;7.966;2022-08-01T09:46:26;25.10;99.90
6106;DHT22;3083;51.508;7.966;2022-08-01T09:49:00;25.00;99.90
6106;DHT22;3083;51.508;7.966;2022-08-01T09:51:32;25.20;99.90
6106;DHT22;3083;51.508;7.966;2022-08-01T09:54:01;25.60;99.90
6106;DHT22;3083;51.508;7.966;2022-08-01T09:56:36;25.90;99.90
6106;DHT22;3083;51.508;7.966;2022-08-01T09:59:04;26.00;99.90
6106;DHT22;3083;51.508;7.966;2022-08-01T10:01:43;25.80;99.90
6106;DHT22;3083;51.508;7.966;2022-08-01T10:04:12;25.60;99.90
6106;DHT22;3083;51.508;7.966;2022-08-01T10:06:40;25.60;99.90
6106;DHT22;3083;51.508;7.966;2022-08-01T10:09:11;25.90;99.90
6106;DHT22;3083;51.508;7.966;2022-08-01T10:11:40;26.30;99.90
6106;DHT22;3083;51.508;7.966;2022-08-01T10:14:08;26.50;99.90
6106;DHT22;3083;51.508;7.966;2022-08-01T10:16:39;26.50;99.90
6106;DHT22;3083;51.508;7.966;2022-08-01T10:19:07;26.50;99.90
6106;DHT22;3083;51.508;7.966;2022-08-01T10:21:36;26.70;99.90
6106;DHT22;3083;51.508;7.966;2022-08-01T10:24:05;26.60;99.90
6106;DHT22;3083;51.508;7.966;2022-08-01T10:26:36;26.50;99.90
6106;DHT22;3083;51.508;7.966;2022-08-01T10:29:04;26.50;99.90
6106;DHT22;3083;51.508;7.966;2022-08-01T10:31:32;26.50;99.90
6106;DHT22;3083;51.508;7.966;2022-08-01T10:33:59;26.30;99.90
6106;DHT22;3083;51.508;7.966;2022-08-01T10:36:27;26.40;99.90
6106;DHT22;3083;51.508;7.966;2022-08-01T10:38:55;26.70;99.90
6106;DHT22;3083;51.508;7.966;2022-08-01T10:41:24;26.90;99.90
6106;DHT22;3083;51.508;7.966;2022-08-01T10:43:52;27.20;99.90
6106;DHT22;3083;51.508;7.966;2022-08-01T10:46:20;27.40;99.90
6106;DHT22;3083;51.508;7.966;2022-08-01T10:48:55;27.60;99.90
6106;DHT22;3083;51.508;7.966;2022-08-01T10:51:24;27.90;99.90
6106;DHT22;3083;51.508;7.966;2022-08-01T10:53:53;28.10;99.90
6106;DHT22;3083;51.508;7.966;2022-08-01T10:56:21;28.10;99.90
6106;DHT22;3083;51.508;7.966;2022-08-01T10:58:49;28.10;99.90
6106;DHT22;3083;51.508;7.966;2022-08-01T11:01:20;28.20;99.90
6106;DHT22;3083;51.508;7.966;2022-08-01T11:03:58;28.20;99.90
6106;DHT22;3083;51.508;7.966;2022-08-01T11:06:40;27.80;99.90
6106;DHT22;3083;51.508;7.966;2022-08-01T11:09:23;27.20;99.90
6106;DHT22;3083;51.508;7.966;2022-08-01T11:12:02;26.70;99.90
6106;DHT22;3083;51.508;7.966;2022-08-01T11:14:31;26.30;99.90
6106;DHT22;3083;51.508;7.966;2022-08-01T11:17:33;26.10;99.90
6106;DHT22;3083;51.508;7.966;2022-08-01T11:20:07;25.90;99.90
6106;DHT22;3083;51.508;7.966;2022-08-01T11:26:09;25.50;99.90
6106;DHT22;3083;51.508;7.966;2022-08-01T11:28:36;25.20;99.90
6106;DHT22;3083;51.508;7.966;2022-08-01T11:31:25;25.00;99.90
6106;DHT22;3083;51.508;7.966;2022-08-01T11:33:54;25.10;99.90
6106;DHT22;3083;51.508;7.966;2022-08-01T11:36:21;25.30;99.90
6106;DHT22;3083;51.508;7.966;2022-08-01T11:39:13;25.40;99.90
6106;DHT22;3083;51.508;7.966;2022-08-01T11:41:41;25.60;99.90
6106;DHT22;3083;51.508;7.966;2022-08-01T11:44:09;25.90;99.90
6106;DHT22;3083;51.508;7.966;2022-08-01T11:47:07;26.10;99.90
6106;DHT22;3083;51.508;7.966;2022-08-01T11:49:47;26.10;99.90
6106;DHT22;3083;51.508;7.966;2022-08-01T11:52:18;26.00;99.90
6106;DHT22;3083;51.508;7.966;2022-08-01T11:54:47;25.90;99.90
6106;DHT22;3083;51.508;7.966;2022-08-01T11:57:17;25.70;99.90
6106;DHT22;3083;51.508;7.966;2022-08-01T11:59:46;25.50;99.90
6106;DHT22;3083;51.508;7.966;2022-08-01T12:02:25;25.40;99.90
6106;DHT22;3083;51.508;7.966;2022-08-01T12:04:58;25.50;99.90
6106;DHT22;3083;51.508;7.966;2022-08-01T12:07:26;25.70;99.90
6106;DHT22;3083;51.508;7.966;2022-08-01T12:09:58;26.00;99.90
6106;DHT22;3083;51.508;7.966;2022-08-01T12:12:26;26.20;99.90
6106;DHT22;3083;51.508;7.966;2022-08-01T12:14:55;26.10;99.90
6106;DHT22;3083;51.508;7.966;2022-08-01T12:17:34;26.10;99.90
6106;DHT22;3083;51.508;7.966;2022-08-01T12:20:05;25.90;99.90
6106;DHT22;3083;51.508;7.966;2022-08-01T12:22:33;25.70;99.90
6106;DHT22;3083;51.508;7.966;2022-08-01T12:25:08;25.70;99.90
6106;DHT22;3083;51.508;7.966;2022-08-01T12:27:36;25.60;99.90
6106;DHT22;3083;51.508;7.966;2022-08-01T12:30:06;25.70;99.90
6106;DHT22;3083;51.508;7.966;2022-08-01T12:32:34;25.70;99.90
6106;DHT22;3083;51.508;7.966;2022-08-01T12:35:05;25.60;99.90
6106;DHT22;3083;51.508;7.966;2022-08-01T12:37:35;25.60;99.90
6106;DHT22;3083;51.508;7.966;2022-08-01T12:40:10;25.80;99.90
6106;DHT22;3083;51.508;7.966;2022-08-01T12:42:37;26.00;99.90
6106;DHT22;3083;51.508;7.966;2022-08-01T12:45:06;26.10;99.90
6106;DHT22;3083;51.508;7.966;2022-08-01T12:47:35;26.20;99.90
6106;DHT22;3083;51.508;7.966;2022-08-01T12:50:05;26.20;99.90
6106;DHT22;3083;51.508;7.966;2022-08-01T12:52:34;26.20;99.90
6106;DHT22;3083;51.508;7.966;2022-08-01T12:55:03;26.30;99.90
6106;DHT22;3083;51.508;7.966;2022-08-01T12:57:30;26.40;99.90
6106;DHT22;3083;51.508;7.966;2022-08-01T13:00:09;26.30;99.90
6106;DHT22;3083;51.508;7.966;2022-08-01T13:02:37;26.20;99.90
6106;DHT22;3083;51.508;7.966;2022-08-01T13:05:07;26.10;99.90
6106;DHT22;3083;51.508;7.966;2022-08-01T13:07:36;26.00;99.90
6106;DHT22;3083;51.508;7.966;2022-08-01T13:10:05;25.70;99.90
6106;DHT22;3083;51.508;7.966;2022-08-01T13:12:32;25.60;99.90
6106;DHT22;3083;51.508;7.966;2022-08-01T13:14:59;25.50;99.90
6106;DHT22;3083;51.508;7.966;2022-08-01T13:17:39;25.60;99.90
6106;DHT22;3083;51.508;7.966;2022-08-01T13:20:09;25.50;99.90
6106;DHT22;3083;51.508;7.966;2022-08-01T13:22:38;25.40;99.90
6106;DHT22;3083;51.508;7.966;2022-08-01T13:25:12;25.40;99.90
6106;DHT22;3083;51.508;7.966;2022-08-01T13:27:39;25.30;99.90
6106;DHT22;3083;51.508;7.966;2022-08-01T13:30:11;25.20;99.90
6106;DHT22;3083;51.508;7.966;2022-08-01T13:32:38;25.20;99.90
6106;DHT22;3083;51.508;7.966;2022-08-01T13:35:08;25.40;99.90
6106;DHT22;3083;51.508;7.966;2022-08-01T13:37:36;25.60;99.90
6106;DHT22;3083;51.508;7.966;2022-08-01T13:40:05;25.80;99.90
6106;DHT22;3083;51.508;7.966;2022-08-01T13:42:32;26.00;99.90
6106;DHT22;3083;51.508;7.966;2022-08-01T13:45:00;26.00;99.90
6106;DHT22;3083;51.508;7.966;2022-08-01T13:47:27;26.00;99.90
6106;DHT22;3083;51.508;7.966;2022-08-01T13:49:54;26.00;99.90
6106;DHT22;3083;51.508;7.966;2022-08-01T13:52:22;25.90;99.90
6106;DHT22;3083;51.508;7.966;2022-08-01T13:54:49;25.90;99.90
6106;DHT22;3083;51.508;7.966;2022-08-01T13:57:16;25.90;99.90
6106;DHT22;3083;51.508;7.966;2022-08-01T13:59:43;25.80;99.90
6106;DHT22;3083;51.508;7.966;2022-08-01T14:02:10;25.80;99.90
6106;DHT22;3083;51.508;7.966;2022-08-01T14:04:37;25.80;99.90
6106;DHT22;3083;51.508;7.966;2022-08-01T14:07:04;25.90;99.90
6106;DHT22;3083;51.508;7.966;2022-08-01T14:09:32;25.90;99.90
6106;DHT22;3083;51.508;7.966;2022-08-01T14:11:59;26.20;99.90
6106;DHT22;3083;51.508;7.966;2022-08-01T14:14:26;26.40;99.90
6106;DHT22;3083;51.508;7.966;2022-08-01T14:16:53;26.30;99.90
6106;DHT22;3083;51.508;7.966;2022-08-01T14:19:20;26.10;99.90
6106;DHT22;3083;51.508;7.966;2022-08-01T14:21:47;26.00;99.90
6106;DHT22;3083;51.508;7.966;2022-08-01T14:24:14;25.90;99.90
6106;DHT22;3083;51.508;7.966;2022-08-01T14:26:42;25.80;99.90
6106;DHT22;3083;51.508;7.966;2022-08-01T14:29:09;25.70;99.90
6106;DHT22;3083;51.508;7.966;2022-08-01T14:31:36;25.60;99.90
6106;DHT22;3083;51.508;7.966;2022-08-01T14:34:03;25.40;99.90
6106;DHT22;3083;51.508;7.966;2022-08-01T14:36:30;25.20;99.90
6106;DHT22;3083;51.508;7.966;2022-08-01T14:38:57;25.20;99.90
6106;DHT22;3083;51.508;7.966;2022-08-01T14:41:24;25.30;99.90
6106;DHT22;3083;51.508;7.966;2022-08-01T14:43:53;25.40;99.90
6106;DHT22;3083;51.508;7.966;2022-08-01T14:46:20;25.50;99.90
6106;DHT22;3083;51.508;7.966;2022-08-01T14:48:47;25.50;99.90
6106;DHT22;3083;51.508;7.966;2022-08-01T14:51:14;25.50;99.90
6106;DHT22;3083;51.508;7.966;2022-08-01T14:53:41;25.40;99.90
6106;DHT22;3083;51.508;7.966;2022-08-01T14:56:08;25.40;99.90
6106;DHT22;3083;51.508;7.966;2022-08-01T14:58:35;25.30;99.90
6106;DHT22;3083;51.508;7.966;2022-08-01T15:01:03;25.10;99.90
6106;DHT22;3083;51.508;7.966;2022-08-01T15:03:31;25.10;99.90
6106;DHT22;3083;51.508;7.966;2022-08-01T15:05:58;24.90;99.90
6106;DHT22;3083;51.508;7.966;2022-08-01T15:08:25;24.90;99.90
6106;DHT22;3083;51.508;7.966;2022-08-01T15:10:52;24.90;99.90
6106;DHT22;3083;51.508;7.966;2022-08-01T15:13:19;24.90;99.90
6106;DHT22;3083;51.508;7.966;2022-08-01T15:15:46;25.00;99.90
6106;DHT22;3083;51.508;7.966;2022-08-01T15:18:15;25.10;99.90
6106;DHT22;3083;51.508;7.966;2022-08-01T15:20:42;25.20;99.90
6106;DHT22;3083;51.508;7.966;2022-08-01T15:23:08;25.30;99.90
6106;DHT22;3083;51.508;7.966;2022-08-01T15:25:35;25.30;99.90
6106;DHT22;3083;51.508;7.966;2022-08-01T15:28:03;25.40;99.90
6106;DHT22;3083;51.508;7.966;2022-08-01T15:30:30;25.30;99.90
6106;DHT22;3083;51.508;7.966;2022-08-01T15:32:58;25.30;99.90
6106;DHT22;3083;51.508;7.966;2022-08-01T15:35:26;25.30;99.90
6106;DHT22;3083;51.508;7.966;2022-08-01T15:37:53;25.20;99.90
6106;DHT22;3083;51.508;7.966;2022-08-01T15:40:20;25.00;99.90
6106;DHT22;3083;51.508;7.966;2022-08-01T15:42:47;25.00;99.90
6106;DHT22;3083;51.508;7.966;2022-08-01T15:45:14;25.00;99.90
6106;DHT22;3083;51.508;7.966;2022-08-01T15:47:44;24.90;99.90
6106;DHT22;3083;51.508;7.966;2022-08-01T15:50:11;24.80;99.90
6106;DHT22;3083;51.508;7.966;2022-08-01T15:52:39;24.70;99.90
6106;DHT22;3083;51.508;7.966;2022-08-01T15:55:07;24.80;99.90
6106;DHT22;3083;51.508;7.966;2022-08-01T15:57:34;24.70;99.90
6106;DHT22;3083;51.508;7.966;2022-08-01T16:00:02;24.70;99.90
6106;DHT22;3083;51.508;7.966;2022-08-01T16:02:29;24.70;99.90
6106;DHT22;3083;51.508;7.966;2022-08-01T16:04:56;24.70;99.90
6106;DHT22;3083;51.508;7.966;2022-08-01T16:07:23;24.70;99.90
6106;DHT22;3083;51.508;7.966;2022-08-01T16:09:51;24.60;99.90
6106;DHT22;3083;51.508;7.966;2022-08-01T16:12:18;24.60;99.90
6106;DHT22;3083;51.508;7.966;2022-08-01T16:14:45;24.50;99.90
6106;DHT22;3083;51.508;7.966;2022-08-01T16:17:12;24.50;99.90